createdAt,value
2023-02-19T00:02:03.885Z,7.80
2023-02-19T00:04:32.381Z,7.80
2023-02-19T00:07:02.202Z,7.70
2023-02-19T00:09:30.805Z,7.60
2023-02-19T00:11:59.463Z,7.60
2023-02-19T00:14:28.111Z,7.60
2023-02-19T00:16:56.551Z,7.60
2023-02-19T00:19:25.303Z,7.60
2023-02-19T00:21:55.092Z,7.60
2023-02-19T00:24:24.911Z,7.60
2023-02-19T00:26:53.394Z,7.60
2023-02-19T00:29:25.061Z,7.60
2023-02-19T00:31:53.712Z,7.50
2023-02-19T00:34:22.278Z,7.50
2023-02-19T00:36:50.762Z,7.50
2023-02-19T00:39:19.371Z,7.50
2023-02-19T00:41:49.827Z,7.50
2023-02-19T00:44:18.319Z,7.60
2023-02-19T00:46:49.153Z,7.50
2023-02-19T00:49:21.012Z,7.50
2023-02-19T00:51:50.661Z,7.50
2023-02-19T00:54:20.432Z,7.50
2023-02-19T00:56:53.391Z,7.50
2023-02-19T00:59:22.116Z,7.50
2023-02-19T01:01:51.085Z,7.40
2023-02-19T01:04:19.766Z,7.40
2023-02-19T01:06:49.801Z,7.40
2023-02-19T01:09:18.452Z,7.40
2023-02-19T01:11:47.173Z,7.40
2023-02-19T01:14:17.225Z,7.40
2023-02-19T01:16:45.892Z,7.40
2023-02-19T01:19:14.368Z,7.40
2023-02-19T01:21:43.153Z,7.30
2023-02-19T01:24:12.060Z,7.30
2023-02-19T01:26:41.401Z,7.30
2023-02-19T01:29:10.168Z,7.30
2023-02-19T01:31:42.317Z,7.20
2023-02-19T01:34:13.245Z,7.20
2023-02-19T01:36:42.073Z,7.20
2023-02-19T01:39:11.955Z,7.20
2023-02-19T01:41:42.777Z,7.10
2023-02-19T01:45:03.164Z,7.20
2023-02-19T01:47:33.206Z,7.20
2023-02-19T01:50:01.727Z,7.20
2023-02-19T01:52:34.115Z,7.20
2023-02-19T01:55:05.089Z,7.20
2023-02-19T01:57:37.303Z,7.20
2023-02-19T02:00:12.214Z,7.20
2023-02-19T02:02:44.606Z,7.20
2023-02-19T02:05:40.956Z,7.20
2023-02-19T02:08:26.977Z,7.20
2023-02-19T02:10:56.370Z,7.10
2023-02-19T02:13:25.046Z,7.20
2023-02-19T02:16:10.097Z,7.10
2023-02-19T02:18:52.613Z,7.10
2023-02-19T02:21:54.816Z,7.10
2023-02-19T02:24:55.046Z,7.10
2023-02-19T02:27:54.900Z,7.10
2023-02-19T02:30:43.783Z,7.10
2023-02-19T02:33:25.205Z,7.00
2023-02-19T02:35:59.603Z,7.00
2023-02-19T02:38:31.410Z,7.10
2023-02-19T02:41:00.430Z,7.00
2023-02-19T02:43:29.296Z,7.00
2023-02-19T02:45:59.297Z,6.90
2023-02-19T02:48:38.990Z,6.80
2023-02-19T02:51:16.574Z,6.70
2023-02-19T02:54:08.321Z,6.70
2023-02-19T02:56:37.986Z,6.60
2023-02-19T02:59:11.691Z,6.60
2023-02-19T03:02:04.801Z,6.50
2023-02-19T03:05:00.490Z,6.50
2023-02-19T03:07:35.091Z,6.50
2023-02-19T03:10:08.669Z,6.40
2023-02-19T03:12:56.357Z,6.40
2023-02-19T03:15:46.728Z,6.30
2023-02-19T03:18:35.482Z,6.30
2023-02-19T03:21:22.322Z,6.30
2023-02-19T03:24:12.533Z,6.20
2023-02-19T03:26:42.708Z,6.20
2023-02-19T03:29:26.819Z,6.20
2023-02-19T03:31:58.757Z,6.20
2023-02-19T03:34:33.401Z,6.10
2023-02-19T03:37:09.969Z,6.10
2023-02-19T03:39:44.446Z,6.20
2023-02-19T03:42:24.080Z,6.20
2023-02-19T03:45:09.606Z,6.20
2023-02-19T03:47:48.309Z,6.20
2023-02-19T03:50:23.020Z,6.20
2023-02-19T03:53:01.914Z,6.20
2023-02-19T03:55:40.963Z,6.20
2023-02-19T03:58:16.199Z,6.20
2023-02-19T04:00:50.215Z,6.20
2023-02-19T04:03:26.447Z,6.20
2023-02-19T04:06:04.296Z,6.20
2023-02-19T04:08:35.638Z,6.20
2023-02-19T04:11:05.960Z,6.20
2023-02-19T04:13:39.621Z,6.20
2023-02-19T04:16:14.391Z,6.20
2023-02-19T04:18:45.941Z,6.30
2023-02-19T04:21:16.928Z,6.20
2023-02-19T04:23:47.062Z,6.20
2023-02-19T04:26:16.687Z,6.20
2023-02-19T04:28:45.301Z,6.20
2023-02-19T04:31:14.215Z,6.20
2023-02-19T04:33:43.254Z,6.20
2023-02-19T04:36:12.682Z,6.20
2023-02-19T04:38:42.476Z,6.30
2023-02-19T04:41:11.730Z,6.20
2023-02-19T04:43:40.388Z,6.30
2023-02-19T04:46:08.907Z,6.30
2023-02-19T04:48:37.612Z,6.30
2023-02-19T04:51:09.928Z,6.30
2023-02-19T04:53:39.237Z,6.30
2023-02-19T04:56:12.145Z,6.30
2023-02-19T04:58:41.523Z,6.30
2023-02-19T05:01:11.195Z,6.30
2023-02-19T05:03:40.101Z,6.30
2023-02-19T05:06:12.150Z,6.30
2023-02-19T05:08:41.261Z,6.30
2023-02-19T05:11:13.680Z,6.30
2023-02-19T05:13:42.463Z,6.30
2023-02-19T05:16:15.977Z,6.30
2023-02-19T05:18:46.584Z,6.30
2023-02-19T05:21:16.095Z,6.30
2023-02-19T05:23:45.120Z,6.30
2023-02-19T05:26:18.173Z,6.30
2023-02-19T05:28:47.348Z,6.30
2023-02-19T05:31:16.561Z,6.30
2023-02-19T05:33:48.445Z,6.30
2023-02-19T05:36:16.949Z,6.30
2023-02-19T05:38:45.423Z,6.30
2023-02-19T05:41:17.878Z,6.30
2023-02-19T05:43:48.752Z,6.30
2023-02-19T05:46:19.758Z,6.30
2023-02-19T05:48:48.931Z,6.30
2023-02-19T05:51:19.897Z,6.20
2023-02-19T05:53:49.527Z,6.20
2023-02-19T05:56:35.927Z,6.20
2023-02-19T05:59:08.157Z,6.30
2023-02-19T06:01:37.637Z,6.20
2023-02-19T06:04:06.747Z,6.20
2023-02-19T06:06:35.836Z,6.20
2023-02-19T06:09:05.102Z,6.20
2023-02-19T06:11:35.451Z,6.20
2023-02-19T06:14:04.168Z,6.20
2023-02-19T06:16:33.801Z,6.20
2023-02-19T06:19:04.321Z,6.20
2023-02-19T06:21:32.800Z,6.20
2023-02-19T06:24:05.869Z,6.20
2023-02-19T06:26:36.130Z,6.10
2023-02-19T06:29:05.050Z,6.10
2023-02-19T06:31:33.624Z,6.10
2023-02-19T06:34:05.896Z,6.10
2023-02-19T06:36:34.454Z,6.10
2023-02-19T06:39:04.292Z,6.10
2023-02-19T06:41:33.218Z,6.10
2023-02-19T06:44:03.058Z,6.10
2023-02-19T06:46:31.825Z,6.10
2023-02-19T06:49:00.280Z,6.00
2023-02-19T06:51:29.778Z,6.10
2023-02-19T06:53:58.427Z,6.10
2023-02-19T06:56:29.124Z,6.00
2023-02-19T06:59:04.103Z,6.10
2023-02-19T07:01:34.725Z,6.10
2023-02-19T07:04:03.784Z,6.10
2023-02-19T07:06:33.211Z,6.10
2023-02-19T07:09:02.168Z,6.10
2023-02-19T07:11:34.526Z,6.10
2023-02-19T07:14:07.689Z,6.10
2023-02-19T07:16:37.406Z,6.10
2023-02-19T07:19:05.856Z,6.10
2023-02-19T07:21:37.973Z,6.10
2023-02-19T07:24:07.517Z,6.10
2023-02-19T07:26:36.244Z,6.10
2023-02-19T07:29:07.809Z,6.10
2023-02-19T07:31:36.632Z,6.00
2023-02-19T07:34:05.150Z,6.10
2023-02-19T07:36:33.774Z,6.10
2023-02-19T07:39:02.287Z,6.10
2023-02-19T07:41:30.749Z,6.10
2023-02-19T07:43:59.294Z,6.10
2023-02-19T07:46:30.791Z,6.20
2023-02-19T07:49:00.432Z,6.10
2023-02-19T07:51:29.165Z,6.20
2023-02-19T07:53:57.631Z,6.20
2023-02-19T07:56:26.203Z,6.20
2023-02-19T07:58:54.633Z,6.20
2023-02-19T08:01:46.251Z,6.20
2023-02-19T08:04:15.509Z,6.20
2023-02-19T08:06:44.416Z,6.20
2023-02-19T08:09:12.937Z,6.30
2023-02-19T08:11:58.861Z,6.30
2023-02-19T08:14:28.042Z,6.40
2023-02-19T08:16:57.113Z,6.40
2023-02-19T08:19:27.125Z,6.50
2023-02-19T08:21:55.633Z,6.40
2023-02-19T08:24:24.107Z,6.40
2023-02-19T08:26:52.619Z,6.30
2023-02-19T08:29:21.269Z,6.30
2023-02-19T08:31:49.853Z,6.20
2023-02-19T08:34:18.438Z,6.20
2023-02-19T08:36:48.266Z,6.10
2023-02-19T08:39:16.752Z,6.10
2023-02-19T08:41:45.353Z,6.10
2023-02-19T08:44:13.771Z,6.00
2023-02-19T08:46:42.205Z,6.00
2023-02-19T08:49:10.636Z,6.00
2023-02-19T08:51:39.071Z,5.90
2023-02-19T08:54:08.892Z,6.00
2023-02-19T08:56:37.515Z,6.10
2023-02-19T08:59:05.966Z,6.20
2023-02-19T09:01:34.751Z,6.30
2023-02-19T09:04:03.289Z,6.50
2023-02-19T09:06:31.855Z,6.60
2023-02-19T09:09:00.288Z,6.60
2023-02-19T09:11:30.148Z,6.70
2023-02-19T09:13:59.300Z,6.70
2023-02-19T09:16:28.013Z,6.70
2023-02-19T09:18:56.734Z,6.80
2023-02-19T09:21:25.184Z,7.00
2023-02-19T09:23:53.951Z,7.00
2023-02-19T09:26:22.502Z,7.10
2023-02-19T09:28:52.400Z,7.10
2023-02-19T09:31:21.125Z,7.10
2023-02-19T09:33:53.357Z,7.00
2023-02-19T09:36:22.038Z,6.90
2023-02-19T09:38:50.710Z,6.90
2023-02-19T09:41:27.058Z,7.00
2023-02-19T09:43:57.631Z,7.10
2023-02-19T09:46:33.117Z,7.20
2023-02-19T09:49:07.925Z,7.30
2023-02-19T09:51:39.394Z,7.30
2023-02-19T09:54:14.459Z,7.20
2023-02-19T09:56:43.336Z,7.30
2023-02-19T09:59:21.422Z,7.20
2023-02-19T10:01:53.661Z,7.30
2023-02-19T10:04:22.385Z,7.20
2023-02-19T10:06:52.135Z,7.20
2023-02-19T10:09:26.826Z,7.20
2023-02-19T10:11:57.532Z,7.30
2023-02-19T10:14:34.058Z,7.30
2023-02-19T10:17:07.099Z,7.30
2023-02-19T10:19:37.349Z,7.20
2023-02-19T10:22:06.449Z,7.20
2023-02-19T10:24:36.909Z,7.10
2023-02-19T10:27:13.156Z,7.10
2023-02-19T10:29:45.445Z,7.10
2023-02-19T10:32:24.107Z,7.20
2023-02-19T10:35:11.897Z,7.20
2023-02-19T10:37:47.501Z,7.10
2023-02-19T10:40:22.138Z,7.10
2023-02-19T10:42:54.426Z,7.10
2023-02-19T10:45:28.622Z,7.10
2023-02-19T10:47:58.115Z,7.10
2023-02-19T10:50:31.671Z,7.10
2023-02-19T10:53:02.078Z,7.10
2023-02-19T10:55:36.725Z,7.10
2023-02-19T10:58:26.618Z,7.00
2023-02-19T11:01:19.850Z,7.10
2023-02-19T11:03:49.577Z,7.20
2023-02-19T11:06:21.620Z,7.20
2023-02-19T11:08:59.689Z,7.30
2023-02-19T11:11:36.233Z,7.40
2023-02-19T11:14:15.129Z,7.40
2023-02-19T11:16:48.680Z,7.40
2023-02-19T11:19:28.376Z,7.30
2023-02-19T11:21:58.692Z,7.20
2023-02-19T11:24:34.926Z,7.30
2023-02-19T11:27:06.722Z,7.40
2023-02-19T11:29:36.306Z,7.50
2023-02-19T11:32:29.681Z,7.60
2023-02-19T11:35:20.057Z,7.50
2023-02-19T11:38:00.274Z,7.40
2023-02-19T11:40:42.541Z,7.40
2023-02-19T11:43:48.933Z,7.40
2023-02-19T11:46:30.045Z,7.40
2023-02-19T11:49:17.602Z,7.30
2023-02-19T11:52:14.233Z,7.30
2023-02-19T11:54:52.724Z,7.30
2023-02-19T11:57:41.193Z,7.30
2023-02-19T12:00:27.736Z,7.30
2023-02-19T12:03:45.195Z,7.20
2023-02-19T12:06:25.034Z,7.20
2023-02-19T12:09:22.843Z,7.20
2023-02-19T12:12:17.772Z,7.20
2023-02-19T12:15:00.969Z,7.20
2023-02-19T12:17:52.909Z,7.20
2023-02-19T12:20:31.723Z,7.10
2023-02-19T12:23:32.096Z,7.00
2023-02-19T12:26:06.429Z,7.00
2023-02-19T12:29:01.558Z,7.00
2023-02-19T12:32:13.337Z,7.00
2023-02-19T12:35:29.845Z,7.10
2023-02-19T12:38:14.505Z,7.20
2023-02-19T12:41:03.227Z,7.20
2023-02-19T12:43:35.715Z,7.20
2023-02-19T12:46:08.473Z,7.20
2023-02-19T12:48:47.703Z,7.10
2023-02-19T12:51:22.847Z,7.10
2023-02-19T12:53:58.693Z,7.10
2023-02-19T12:56:32.316Z,7.10
2023-02-19T12:59:05.694Z,7.10
2023-02-19T13:01:44.522Z,7.10
2023-02-19T13:04:26.038Z,7.10
2023-02-19T13:07:00.363Z,7.10
2023-02-19T13:09:36.278Z,7.10
2023-02-19T13:12:10.118Z,7.10
2023-02-19T13:14:43.830Z,7.10
2023-02-19T13:17:24.096Z,6.90
2023-02-19T13:19:59.486Z,7.00
2023-02-19T13:22:54.591Z,7.00
2023-02-19T13:25:49.698Z,7.00
2023-02-19T13:28:43.151Z,7.00
2023-02-19T13:31:49.777Z,7.00
2023-02-19T13:34:34.852Z,7.00
2023-02-19T13:37:04.384Z,7.00
2023-02-19T13:39:32.991Z,6.90
2023-02-19T13:42:03.232Z,6.90
2023-02-19T13:44:42.122Z,6.80
2023-02-19T13:47:50.417Z,6.80
2023-02-19T13:50:24.243Z,6.80
2023-02-19T13:52:54.169Z,6.80
2023-02-19T13:55:52.687Z,6.90
2023-02-19T13:59:01.499Z,6.90
2023-02-19T14:02:36.458Z,7.00
2023-02-19T14:05:08.535Z,7.00
2023-02-19T14:07:54.366Z,7.00
2023-02-19T14:11:02.740Z,7.00
2023-02-19T14:14:27.871Z,7.10
2023-02-19T14:17:04.890Z,7.00
2023-02-19T14:19:56.603Z,7.00
2023-02-19T14:23:10.807Z,6.90
2023-02-19T14:25:45.749Z,6.90
2023-02-19T14:28:35.267Z,6.80
2023-02-19T14:31:27.842Z,6.80
2023-02-19T14:33:59.955Z,6.90
2023-02-19T14:36:39.264Z,6.90
2023-02-19T14:39:13.946Z,6.90
2023-02-19T14:41:47.345Z,6.90
2023-02-19T14:44:21.074Z,6.90
2023-02-19T14:46:57.978Z,6.90
2023-02-19T14:49:31.852Z,6.90
2023-02-19T14:52:04.403Z,6.80
2023-02-19T14:54:42.668Z,6.80
2023-02-19T14:57:19.242Z,6.80
2023-02-19T14:59:58.572Z,6.80
2023-02-19T15:02:30.548Z,6.70
2023-02-19T15:04:59.828Z,6.80
2023-02-19T15:07:32.172Z,6.80
2023-02-19T15:10:05.740Z,6.80
2023-02-19T15:12:42.126Z,6.70
2023-02-19T15:15:17.971Z,6.70
2023-02-19T15:17:48.149Z,6.70
2023-02-19T15:20:22.560Z,6.60
2023-02-19T15:22:52.000Z,6.60
2023-02-19T15:25:23.896Z,6.60
2023-02-19T15:27:52.571Z,6.70
2023-02-19T15:30:25.811Z,6.60
2023-02-19T15:32:58.020Z,6.60
2023-02-19T15:35:33.481Z,6.60
2023-02-19T15:38:02.776Z,6.70
2023-02-19T15:40:32.916Z,6.70
2023-02-19T15:43:02.344Z,6.70
2023-02-19T15:45:37.144Z,6.70
2023-02-19T15:48:10.730Z,6.70
2023-02-19T15:50:44.345Z,6.60
2023-02-19T15:53:17.264Z,6.60
2023-02-19T15:55:50.549Z,6.50
2023-02-19T15:58:27.841Z,6.50
2023-02-19T16:00:59.758Z,6.50
2023-02-19T16:03:31.500Z,6.50
2023-02-19T16:06:02.483Z,6.50
2023-02-19T16:08:33.324Z,6.50
2023-02-19T16:11:04.471Z,6.50
2023-02-19T16:13:34.886Z,6.40
2023-02-19T16:16:15.412Z,6.40
2023-02-19T16:18:49.082Z,5.60
2023-02-19T16:21:21.812Z,6.30
2023-02-19T16:23:57.199Z,6.30
2023-02-19T16:26:25.723Z,6.30
2023-02-19T16:28:55.039Z,6.30
2023-02-19T16:31:24.987Z,6.40
2023-02-19T16:33:55.278Z,6.40
2023-02-19T16:36:37.022Z,6.40
2023-02-19T16:39:25.964Z,6.40
2023-02-19T16:42:14.492Z,6.30
2023-02-19T16:44:44.547Z,6.30
2023-02-19T16:47:30.587Z,6.20
2023-02-19T16:50:04.340Z,6.10
2023-02-19T16:52:32.972Z,6.10
2023-02-19T16:55:01.863Z,6.10
2023-02-19T16:57:30.621Z,6.10
2023-02-19T16:59:59.177Z,6.10
2023-02-19T17:02:27.902Z,6.10
2023-02-19T17:04:56.486Z,6.10
2023-02-19T17:07:27.527Z,6.10
2023-02-19T17:09:56.109Z,6.10
2023-02-19T17:12:24.752Z,6.10
2023-02-19T17:14:53.178Z,6.00
2023-02-19T17:17:21.587Z,6.00
2023-02-19T17:19:50.038Z,6.00
2023-02-19T17:22:18.487Z,6.00
2023-02-19T17:24:48.412Z,6.00
2023-02-19T17:27:16.942Z,5.90
2023-02-19T17:29:45.589Z,5.90
2023-02-19T17:32:14.553Z,5.90
2023-02-19T17:34:43.405Z,5.90
2023-02-19T17:37:11.832Z,5.90
2023-02-19T17:42:10.444Z,5.90
2023-02-19T17:44:38.916Z,5.90
2023-02-19T17:47:07.730Z,5.90
2023-02-19T17:49:36.455Z,5.80
2023-02-19T17:52:05.718Z,5.90
2023-02-19T17:54:34.385Z,5.80
2023-02-19T17:57:02.937Z,5.80
2023-02-19T17:59:32.765Z,5.80
2023-02-19T18:02:03.485Z,5.80
2023-02-19T18:04:31.930Z,5.80
2023-02-19T18:07:00.937Z,5.80
2023-02-19T18:09:29.387Z,5.80
2023-02-19T18:11:58.777Z,5.70
2023-02-19T18:14:27.211Z,5.70
2023-02-19T18:16:57.046Z,5.80
2023-02-19T18:19:26.080Z,5.80
2023-02-19T18:21:54.551Z,5.80
2023-02-19T18:24:23.256Z,5.80
2023-02-19T18:26:51.722Z,5.80
2023-02-19T18:29:21.962Z,5.80
2023-02-19T18:31:50.543Z,5.80
2023-02-19T18:34:21.561Z,5.80
2023-02-19T18:36:50.940Z,5.80
2023-02-19T18:39:19.692Z,5.70
2023-02-19T18:41:48.985Z,5.70
2023-02-19T18:44:20.443Z,5.80
2023-02-19T18:46:49.117Z,5.80
2023-02-19T18:49:19.284Z,5.70
2023-02-19T18:51:48.216Z,5.80
2023-02-19T18:54:16.914Z,5.80
2023-02-19T18:56:46.648Z,5.70
2023-02-19T18:59:15.251Z,5.70
2023-02-19T19:01:44.086Z,5.70
2023-02-19T19:04:12.754Z,5.70
2023-02-19T19:06:42.581Z,5.70
2023-02-19T19:09:11.362Z,5.60
2023-02-19T19:11:40.739Z,5.50
2023-02-19T19:14:09.537Z,5.60
2023-02-19T19:16:37.996Z,5.60
2023-02-19T19:19:06.452Z,5.60
2023-02-19T19:21:35.199Z,5.60
2023-02-19T19:24:06.081Z,5.60
2023-02-19T19:26:36.030Z,5.60
2023-02-19T19:29:04.553Z,5.60
2023-02-19T19:31:37.364Z,5.60
2023-02-19T19:34:05.918Z,5.60
2023-02-19T19:36:34.551Z,5.60
2023-02-19T19:39:04.972Z,5.60
2023-02-19T19:41:33.450Z,5.60
2023-02-19T19:44:05.132Z,5.60
2023-02-19T19:46:34.310Z,5.60
2023-02-19T19:49:02.793Z,5.60
2023-02-19T19:51:35.350Z,5.60
2023-02-19T19:54:05.576Z,5.60
2023-02-19T19:56:34.254Z,5.60
2023-02-19T19:59:02.656Z,5.50
2023-02-19T20:01:31.089Z,5.50
2023-02-19T20:03:59.737Z,5.40
2023-02-19T20:06:30.789Z,5.40
2023-02-19T20:09:00.372Z,5.30
2023-02-19T20:11:30.206Z,5.30
2023-02-19T20:13:58.627Z,5.20
2023-02-19T20:16:28.498Z,5.30
2023-02-19T20:18:57.022Z,5.40
2023-02-19T20:21:26.394Z,5.40
2023-02-19T20:23:54.861Z,5.40
2023-02-19T20:26:25.639Z,5.40
2023-02-19T20:28:56.379Z,5.40
2023-02-19T20:31:25.228Z,5.40
2023-02-19T20:33:54.229Z,5.40
2023-02-19T20:36:22.730Z,5.50
2023-02-19T20:38:51.679Z,5.50
2023-02-19T20:41:20.120Z,5.50
2023-02-19T20:43:48.569Z,5.50
2023-02-19T20:46:19.466Z,5.50
2023-02-19T20:48:49.916Z,5.50
2023-02-19T20:51:19.627Z,5.50
2023-02-19T20:53:48.064Z,5.50
2023-02-19T20:56:16.496Z,5.50
2023-02-19T20:58:44.916Z,5.50
2023-02-19T21:01:13.571Z,5.50
2023-02-19T21:03:43.380Z,5.50
2023-02-19T21:06:12.259Z,5.50
2023-02-19T21:08:40.996Z,5.50
2023-02-19T21:11:09.519Z,5.50
2023-02-19T21:13:38.258Z,5.50
2023-02-19T21:16:07.476Z,5.50
2023-02-19T21:18:35.964Z,5.50
2023-02-19T21:21:06.215Z,5.50
2023-02-19T21:23:34.683Z,5.50
2023-02-19T21:26:03.963Z,5.50
2023-02-19T21:28:32.434Z,5.50
2023-02-19T21:31:01.025Z,5.50
2023-02-19T21:33:29.540Z,5.40
2023-02-19T21:35:58.437Z,5.40
2023-02-19T21:38:28.229Z,5.30
2023-02-19T21:40:56.838Z,5.30
2023-02-19T21:43:25.279Z,5.30
2023-02-19T21:45:53.717Z,5.40
2023-02-19T21:48:22.275Z,5.40
2023-02-19T21:50:50.895Z,5.40
2023-02-19T21:53:19.399Z,5.40
2023-02-19T21:55:58.429Z,5.50
2023-02-19T21:58:27.447Z,5.40
2023-02-19T22:00:56.421Z,5.40
2023-02-19T22:03:26.620Z,5.40
2023-02-19T22:05:55.262Z,5.40
2023-02-19T22:08:23.904Z,5.40
2023-02-19T22:10:53.702Z,5.40
2023-02-19T22:13:22.130Z,5.30
2023-02-19T22:15:50.604Z,5.30
2023-02-19T22:18:19.029Z,5.20
2023-02-19T22:20:47.515Z,5.10
2023-02-19T22:23:15.922Z,5.10
2023-02-19T22:25:44.354Z,5.10
2023-02-19T22:28:14.159Z,5.10
2023-02-19T22:30:43.228Z,5.00
2023-02-19T22:33:11.829Z,5.00
2023-02-19T22:35:40.259Z,5.00
2023-02-19T22:38:08.745Z,5.00
2023-02-19T22:40:37.255Z,4.90
2023-02-19T22:43:05.747Z,4.90
2023-02-19T22:45:35.570Z,4.90
2023-02-19T22:48:04.241Z,4.80
2023-02-19T22:50:32.712Z,4.80
2023-02-19T22:53:01.403Z,4.70
2023-02-19T22:55:29.837Z,4.70
2023-02-19T22:57:58.531Z,4.70
2023-02-19T23:00:27.130Z,4.70
2023-02-19T23:02:56.930Z,4.80
2023-02-19T23:05:25.556Z,4.80
2023-02-19T23:07:54.113Z,4.80
2023-02-19T23:10:23.363Z,4.80
2023-02-19T23:12:51.928Z,4.70
2023-02-19T23:15:20.715Z,4.70
2023-02-19T23:17:49.400Z,4.70
2023-02-19T23:20:19.339Z,4.70
2023-02-19T23:22:47.814Z,4.60
2023-02-19T23:25:16.701Z,4.60
2023-02-19T23:27:45.144Z,4.60
2023-02-19T23:30:16.178Z,4.60
2023-02-19T23:32:44.687Z,4.60
2023-02-19T23:35:13.766Z,4.60
2023-02-19T23:37:43.580Z,4.60
2023-02-19T23:40:14.419Z,4.60
2023-02-19T23:42:42.833Z,4.60
2023-02-19T23:45:11.381Z,4.70
2023-02-19T23:47:39.797Z,4.70
2023-02-19T23:50:09.705Z,4.70
2023-02-19T23:52:38.186Z,4.80
2023-02-19T23:55:09.642Z,4.80
2023-02-19T23:57:38.141Z,4.80
